createdAt,value
2022-10-19T00:00:49.131Z,59.85
2022-10-19T00:03:19.435Z,60.10
2022-10-19T00:05:48.952Z,59.73
2022-10-19T00:08:15.497Z,59.49
2022-10-19T00:14:01.975Z,59.16
2022-10-19T01:35:34.910Z,60.80
2022-10-19T01:38:22.635Z,60.95
2022-10-19T01:41:10.155Z,60.68
2022-10-19T01:43:40.273Z,60.36
2022-10-19T01:50:24.761Z,60.30
2022-10-19T04:06:19.730Z,56.60
2022-10-19T04:08:50.014Z,56.93
2022-10-19T04:11:19.996Z,56.91
2022-10-19T04:13:51.975Z,56.62
2022-10-19T04:16:20.410Z,56.27
2022-10-19T04:19:34.661Z,56.19
2022-10-19T04:22:29.148Z,56.29
2022-10-19T04:25:24.360Z,56.04
2022-10-19T04:27:50.949Z,55.71
2022-10-19T04:30:17.648Z,55.49
2022-10-19T04:32:45.456Z,55.26
2022-10-19T04:35:12.023Z,55.10
2022-10-19T04:37:38.583Z,55.22
2022-10-19T04:40:06.179Z,55.21
2022-10-19T04:42:33.139Z,55.46
2022-10-19T04:45:08.399Z,55.44
2022-10-19T04:47:36.897Z,55.39
2022-10-19T04:50:03.965Z,55.70
2022-10-19T04:52:35.518Z,55.62
2022-10-19T04:55:02.243Z,56.01
2022-10-19T04:57:29.440Z,56.11
2022-10-19T04:59:56.369Z,56.47
2022-10-19T05:02:23.057Z,56.59
2022-10-19T05:04:50.120Z,56.98
2022-10-19T05:07:16.799Z,56.74
2022-10-19T05:09:44.027Z,57.13
2022-10-19T05:12:10.638Z,57.17
2022-10-19T05:14:42.978Z,57.31
2022-10-19T05:17:09.783Z,58.08
2022-10-19T05:19:36.677Z,57.76
2022-10-19T05:22:03.359Z,58.04
2022-10-19T05:24:32.564Z,58.25
2022-10-19T05:26:59.180Z,58.77
2022-10-19T05:29:26.875Z,58.08
2022-10-19T05:31:53.689Z,57.85
2022-10-19T05:34:21.650Z,57.99
2022-10-19T05:36:48.296Z,58.24
2022-10-19T05:39:17.477Z,59.28
2022-10-19T05:41:45.661Z,59.17
2022-10-19T05:44:23.311Z,59.54
2022-10-19T05:46:51.425Z,59.76
2022-10-19T05:49:21.491Z,61.20
2022-10-19T05:52:21.437Z,60.63
2022-10-19T08:26:44.714Z,50.29
2022-10-19T09:26:01.780Z,46.18
2022-10-19T09:28:46.356Z,46.13
2022-10-19T09:31:21.038Z,46.43
2022-10-19T10:50:16.828Z,41.88
2022-10-19T10:52:57.066Z,40.92
2022-10-19T10:55:23.678Z,40.22
2022-10-19T10:57:54.432Z,39.58
2022-10-19T11:00:24.151Z,38.09
2022-10-19T11:03:08.158Z,37.96
2022-10-19T11:05:40.653Z,38.12
2022-10-19T11:08:20.907Z,38.44
2022-10-19T11:11:05.708Z,36.60
2022-10-19T11:14:08.567Z,35.88
2022-10-19T11:16:41.239Z,36.05
2022-10-19T11:19:10.406Z,35.67
2022-10-19T11:22:15.623Z,35.42
2022-10-19T11:25:17.561Z,34.62
2022-10-19T12:11:48.571Z,38.17
2022-10-19T12:14:21.237Z,38.41
2022-10-19T12:19:36.560Z,38.43
2022-10-19T12:22:06.295Z,38.58
2022-10-19T12:24:34.272Z,38.99
2022-10-19T12:27:01.909Z,38.14
2022-10-19T12:29:33.968Z,38.53
2022-10-19T12:32:25.783Z,37.55
2022-10-19T12:39:30.882Z,37.39
2022-10-19T12:42:14.677Z,37.73
2022-10-19T12:45:18.675Z,37.61
2022-10-19T12:48:13.059Z,36.08
2022-10-19T12:50:48.867Z,36.40
2022-10-19T12:53:30.931Z,35.97
2022-10-19T12:56:05.042Z,34.87
2022-10-19T12:58:37.845Z,35.47
2022-10-19T13:01:05.775Z,35.93
2022-10-19T13:03:40.661Z,36.71
2022-10-19T13:06:13.046Z,37.30
2022-10-19T13:08:48.576Z,37.23
2022-10-19T13:11:16.090Z,37.48
2022-10-19T13:14:26.963Z,37.42
2022-10-19T13:17:03.454Z,37.16
2022-10-19T13:19:30.687Z,36.34
2022-10-19T13:22:00.947Z,35.60
2022-10-19T13:24:27.774Z,35.31
2022-10-19T13:27:03.616Z,34.59
2022-10-19T13:29:44.730Z,34.63
2022-10-19T13:32:37.826Z,34.13
2022-10-19T13:35:29.350Z,34.57
2022-10-19T13:38:18.321Z,34.55
2022-10-19T13:40:47.670Z,34.40
2022-10-19T13:43:26.660Z,34.70
2022-10-19T13:46:18.330Z,36.21
2022-10-19T13:49:15.312Z,36.59
2022-10-19T13:52:05.369Z,36.28
2022-10-19T13:54:51.030Z,36.84
2022-10-19T13:57:56.107Z,37.25
2022-10-19T14:00:35.965Z,37.75
2022-10-19T14:03:28.189Z,37.89
2022-10-19T14:06:27.546Z,37.87
2022-10-19T14:09:25.417Z,37.85
2022-10-19T14:11:54.434Z,38.85
2022-10-19T14:14:25.547Z,38.93
2022-10-19T14:17:03.925Z,39.83
2022-10-19T14:19:57.748Z,39.63
2022-10-19T14:22:33.489Z,40.34
2022-10-19T14:25:16.335Z,39.74
2022-10-19T14:27:43.512Z,39.45
2022-10-19T14:30:31.781Z,39.84
2022-10-19T14:33:02.234Z,39.58
2022-10-19T14:35:41.522Z,39.14
2022-10-19T14:38:19.375Z,39.19
2022-10-19T14:40:46.341Z,39.38
2022-10-19T14:43:23.473Z,39.08
2022-10-19T14:46:08.743Z,39.26
2022-10-19T14:48:37.712Z,38.98
2022-10-19T14:51:14.659Z,38.79
2022-10-19T14:53:50.662Z,38.94
2022-10-19T14:56:29.824Z,38.54
2022-10-19T14:59:04.244Z,38.89
2022-10-19T15:01:31.430Z,38.54
2022-10-19T15:03:58.097Z,38.31
2022-10-19T15:06:31.918Z,39.04
2022-10-19T15:09:03.011Z,38.92
2022-10-19T15:11:40.961Z,39.59
2022-10-19T15:14:17.850Z,38.70
2022-10-19T15:16:52.871Z,39.33
2022-10-19T15:19:30.052Z,39.52
2022-10-19T15:22:08.743Z,39.53
2022-10-19T15:24:36.582Z,39.43
2022-10-19T15:27:20.799Z,39.73
2022-10-19T15:30:17.994Z,39.32
2022-10-19T15:32:47.453Z,39.65
2022-10-19T15:35:27.275Z,39.36
2022-10-19T17:12:56.472Z,42.79
2022-10-19T17:15:41.950Z,43.06
2022-10-19T17:18:09.353Z,42.99
2022-10-19T17:20:36.108Z,43.78
2022-10-19T17:23:02.699Z,43.41
2022-10-19T17:25:29.236Z,43.45
2022-10-19T18:08:10.488Z,45.06
2022-10-19T18:10:37.131Z,45.21
2022-10-19T18:31:57.620Z,45.97
2022-10-19T18:42:30.558Z,46.85
2022-10-19T18:44:57.160Z,46.31
2022-10-19T18:47:23.696Z,46.52
2022-10-19T18:49:50.258Z,47.13
2022-10-19T18:52:16.831Z,46.65
2022-10-19T18:54:43.509Z,46.53
2022-10-19T18:58:02.837Z,46.99
2022-10-19T19:01:05.574Z,46.95
2022-10-19T19:03:32.890Z,46.23
2022-10-19T19:06:04.547Z,46.00
2022-10-19T19:16:16.884Z,46.08
2022-10-19T19:18:43.560Z,46.04
2022-10-19T19:21:14.600Z,45.95
2022-10-19T19:23:41.297Z,45.83
2022-10-19T19:26:09.334Z,45.87
2022-10-19T20:00:51.553Z,46.58
2022-10-19T20:03:18.145Z,46.34
2022-10-19T20:05:44.674Z,46.03
2022-10-19T20:08:11.491Z,46.21
2022-10-19T20:10:39.498Z,46.33
2022-10-19T20:47:37.517Z,47.65
2022-10-19T21:29:42.630Z,48.33
2022-10-19T21:32:09.411Z,47.93
2022-10-19T21:34:35.963Z,47.92
2022-10-19T21:37:02.655Z,48.04
2022-10-19T21:39:29.273Z,48.11
2022-10-19T21:41:55.879Z,48.25
2022-10-19T21:54:49.613Z,48.32
2022-10-19T23:49:31.643Z,50.59
2022-10-19T23:51:58.240Z,50.37
2022-10-19T23:54:24.935Z,50.40
2022-10-19T23:56:51.483Z,50.50
2022-10-19T23:59:18.032Z,50.58
